createdAt,value
2019-03-22T00:00:31.871Z,100163.16
2019-03-22T00:03:01.521Z,100164.92
2019-03-22T00:05:28.859Z,100159.21
2019-03-22T00:08:02.481Z,100159.48
2019-03-22T00:10:30.905Z,100162.11
2019-03-22T00:12:59.612Z,100154.12
2019-03-22T00:15:30.269Z,100156.89
2019-03-22T00:17:58.011Z,100148.06
2019-03-22T00:20:25.725Z,100155.28
2019-03-22T00:23:00.570Z,100159.55
2019-03-22T00:25:27.628Z,100152.30
2019-03-22T00:27:54.835Z,100155.80
2019-03-22T00:30:24.518Z,100154.80
2019-03-22T00:32:53.949Z,100144.78
2019-03-22T00:35:25.273Z,100153.16
2019-03-22T00:37:52.385Z,100146.94
2019-03-22T00:40:19.273Z,100143.27
2019-03-22T00:42:50.125Z,100141.17
2019-03-22T00:45:19.744Z,100137.85
2019-03-22T00:47:47.232Z,100135.30
2019-03-22T00:50:16.799Z,100132.98
2019-03-22T00:52:44.320Z,100124.48
2019-03-22T00:55:14.322Z,100125.08
2019-03-22T00:57:42.445Z,100124.41
2019-03-22T01:00:13.860Z,100117.91
2019-03-22T01:02:41.105Z,100115.09
2019-03-22T01:05:11.666Z,100109.20
2019-03-22T01:07:41.857Z,100108.09
2019-03-22T01:10:13.782Z,100110.79
2019-03-22T01:12:45.406Z,100111.29
2019-03-22T01:15:18.811Z,100112.55
2019-03-22T01:17:47.239Z,100108.86
2019-03-22T01:20:14.402Z,100116.16
2019-03-22T01:22:42.096Z,100116.41
2019-03-22T01:25:10.052Z,100107.50
2019-03-22T01:27:41.295Z,100104.63
2019-03-22T01:30:15.488Z,100102.72
2019-03-22T01:32:42.535Z,100104.95
2019-03-22T01:35:10.741Z,100105.70
2019-03-22T01:37:37.698Z,100098.45
2019-03-22T01:40:13.421Z,100104.04
2019-03-22T01:42:40.641Z,100099.42
2019-03-22T01:45:11.177Z,100096.92
2019-03-22T01:47:38.707Z,100099.31
2019-03-22T01:50:13.587Z,100095.52
2019-03-22T01:52:40.686Z,100102.43
2019-03-22T01:55:08.871Z,100094.95
2019-03-22T01:57:36.471Z,100094.66
2019-03-22T02:00:08.205Z,100095.04
2019-03-22T02:02:35.443Z,100093.34
2019-03-22T02:05:07.036Z,100095.17
2019-03-22T02:07:34.360Z,100087.63
2019-03-22T02:10:07.904Z,100096.55
2019-03-22T02:12:35.173Z,100097.50
2019-03-22T02:15:05.531Z,100097.94
2019-03-22T02:17:32.832Z,100098.02
2019-03-22T02:20:00.258Z,100099.17
2019-03-22T02:22:27.348Z,100088.91
2019-03-22T02:24:54.535Z,100097.56
2019-03-22T02:27:21.474Z,100088.83
2019-03-22T02:29:49.815Z,100087.12
2019-03-22T02:32:17.278Z,100091.89
2019-03-22T02:34:44.438Z,100091.74
2019-03-22T02:37:11.581Z,100088.66
2019-03-22T02:39:38.643Z,100088.31
2019-03-22T02:42:06.320Z,100080.45
2019-03-22T02:44:33.424Z,100080.75
2019-03-22T02:47:02.083Z,100086.80
2019-03-22T02:49:29.342Z,100080.16
2019-03-22T02:51:56.463Z,100081.76
2019-03-22T02:54:25.994Z,100080.03
2019-03-22T02:56:52.945Z,100081.54
2019-03-22T02:59:19.938Z,100084.16
2019-03-22T03:01:46.967Z,100086.46
2019-03-22T03:04:14.069Z,100081.33
2019-03-22T03:06:41.158Z,100077.05
2019-03-22T03:09:08.147Z,100086.52
2019-03-22T03:11:35.031Z,100083.55
2019-03-22T03:14:02.298Z,100088.48
2019-03-22T03:16:30.380Z,100087.28
2019-03-22T03:18:57.330Z,100090.80
2019-03-22T03:21:24.625Z,100084.91
2019-03-22T03:23:52.110Z,100085.19
2019-03-22T03:26:19.331Z,100095.16
2019-03-22T03:28:46.701Z,100091.44
2019-03-22T03:31:13.902Z,100086.08
2019-03-22T03:33:41.437Z,100083.78
2019-03-22T03:36:08.667Z,100084.28
2019-03-22T03:38:36.428Z,100088.16
2019-03-22T03:41:03.702Z,100093.38
2019-03-22T03:43:31.272Z,100092.78
2019-03-22T03:45:58.214Z,100087.70
2019-03-22T03:48:25.164Z,100089.58
2019-03-22T03:50:52.395Z,100084.13
2019-03-22T03:53:19.912Z,100087.86
2019-03-22T03:55:46.876Z,100084.27
2019-03-22T03:58:13.905Z,100099.94
2019-03-22T04:00:41.486Z,100099.04
2019-03-22T04:03:08.431Z,100099.47
2019-03-22T04:05:35.550Z,100094.03
2019-03-22T04:08:03.140Z,100095.00
2019-03-22T04:10:30.551Z,100092.88
2019-03-22T04:12:57.740Z,100095.88
2019-03-22T04:15:24.653Z,100097.38
2019-03-22T04:17:51.605Z,100096.54
2019-03-22T04:20:18.614Z,100094.03
2019-03-22T04:22:46.119Z,100096.62
2019-03-22T04:25:13.539Z,100103.38
2019-03-22T04:27:40.582Z,100105.55
2019-03-22T04:30:07.680Z,100104.47
2019-03-22T04:32:34.538Z,100111.49
2019-03-22T04:35:03.227Z,100112.25
2019-03-22T04:37:30.270Z,100111.23
2019-03-22T04:39:57.178Z,100116.30
2019-03-22T04:42:24.290Z,100116.45
2019-03-22T04:44:51.670Z,100113.23
2019-03-22T04:47:20.972Z,100104.02
2019-03-22T04:49:50.969Z,100107.34
2019-03-22T04:52:23.629Z,100110.40
2019-03-22T04:54:55.947Z,100107.25
2019-03-22T04:57:26.090Z,100108.16
2019-03-22T05:00:01.938Z,100120.58
2019-03-22T05:02:32.431Z,100113.58
2019-03-22T05:05:00.458Z,100112.17
2019-03-22T05:07:28.992Z,100108.19
2019-03-22T05:09:57.627Z,100114.86
2019-03-22T05:12:27.780Z,100105.80
2019-03-22T05:14:56.484Z,100107.85
2019-03-22T05:17:25.259Z,100105.94
2019-03-22T05:19:57.669Z,100107.88
2019-03-22T05:22:29.488Z,100108.45
2019-03-22T05:25:02.272Z,100110.09
2019-03-22T05:27:35.222Z,100111.34
2019-03-22T05:30:06.646Z,100110.27
2019-03-22T05:32:34.223Z,100115.82
2019-03-22T05:35:01.259Z,100113.71
2019-03-22T05:37:28.439Z,100115.33
2019-03-22T05:39:56.104Z,100109.09
2019-03-22T05:42:23.265Z,100107.01
2019-03-22T05:44:50.927Z,100116.19
2019-03-22T05:47:20.406Z,100117.00
2019-03-22T05:49:49.648Z,100116.95
2019-03-22T05:52:16.663Z,100119.84
2019-03-22T05:54:44.351Z,100123.06
2019-03-22T05:57:14.193Z,100115.06
2019-03-22T05:59:43.255Z,100111.30
2019-03-22T06:02:13.912Z,100117.70
2019-03-22T06:04:41.271Z,100122.09
2019-03-22T06:07:08.794Z,100122.66
2019-03-22T06:09:38.764Z,100126.66
2019-03-22T06:12:16.606Z,100120.42
2019-03-22T06:14:44.269Z,100126.55
2019-03-22T06:17:11.665Z,100119.78
2019-03-22T06:19:38.779Z,100127.52
2019-03-22T06:22:07.909Z,100140.62
2019-03-22T06:24:35.115Z,100145.30
2019-03-22T06:27:02.385Z,100151.42
2019-03-22T06:29:29.673Z,100152.40
2019-03-22T06:31:57.193Z,100153.54
2019-03-22T06:34:24.516Z,100154.00
2019-03-22T06:36:51.768Z,100151.92
2019-03-22T06:39:21.188Z,100160.91
2019-03-22T06:41:48.627Z,100159.58
2019-03-22T06:44:15.778Z,100158.94
2019-03-22T06:46:42.791Z,100162.14
2019-03-22T06:49:09.632Z,100161.14
2019-03-22T06:51:37.319Z,100165.62
2019-03-22T06:54:04.792Z,100160.99
2019-03-22T06:56:31.808Z,100165.62
2019-03-22T06:58:58.927Z,100168.16
2019-03-22T07:01:26.074Z,100159.86
2019-03-22T07:03:52.955Z,100159.06
2019-03-22T07:06:19.910Z,100153.09
2019-03-22T07:08:46.770Z,100150.26
2019-03-22T07:11:16.762Z,100147.72
2019-03-22T07:13:44.067Z,100152.70
2019-03-22T07:16:11.280Z,100152.78
2019-03-22T07:18:38.277Z,100152.02
2019-03-22T07:21:05.735Z,100143.05
2019-03-22T07:23:33.566Z,100135.92
2019-03-22T07:26:01.637Z,100131.87
2019-03-22T07:28:31.085Z,100138.91
2019-03-22T07:30:58.222Z,100140.30
2019-03-22T07:33:27.085Z,100141.13
2019-03-22T07:35:54.928Z,100136.95
2019-03-22T07:38:22.344Z,100134.68
2019-03-22T07:40:49.180Z,100127.94
2019-03-22T07:43:16.058Z,100123.26
2019-03-22T07:45:42.978Z,100122.91
2019-03-22T07:48:11.925Z,100120.40
2019-03-22T07:50:40.830Z,100125.56
2019-03-22T07:53:07.731Z,100106.81
2019-03-22T07:55:36.994Z,100104.11
2019-03-22T07:58:06.804Z,100097.91
2019-03-22T08:00:33.953Z,100093.77
2019-03-22T08:03:01.105Z,100081.32
2019-03-22T08:05:28.942Z,100073.20
2019-03-22T08:07:58.927Z,100076.25
2019-03-22T08:10:27.659Z,100077.48
2019-03-22T08:12:56.587Z,100074.09
2019-03-22T08:15:30.976Z,100075.26
2019-03-22T08:17:59.202Z,100073.77
2019-03-22T08:20:32.438Z,100072.27
2019-03-22T08:22:59.184Z,100076.76
2019-03-22T08:25:26.264Z,100077.41
2019-03-22T08:27:53.927Z,100087.03
2019-03-22T08:30:24.429Z,100086.39
2019-03-22T08:32:51.580Z,100079.98
2019-03-22T08:35:20.132Z,100074.92
2019-03-22T08:37:52.424Z,100077.70
2019-03-22T08:40:16.017Z,100071.02
2019-03-22T08:42:43.146Z,100063.73
2019-03-22T08:45:11.498Z,100051.27
2019-03-22T08:47:45.896Z,100052.62
2019-03-22T08:50:15.119Z,100051.25
2019-03-22T08:52:42.243Z,100049.58
2019-03-22T08:55:10.021Z,100054.92
2019-03-22T08:57:37.042Z,100053.96
2019-03-22T09:00:09.170Z,100049.16
2019-03-22T09:02:36.115Z,100049.77
2019-03-22T09:05:05.779Z,100053.33
2019-03-22T09:07:33.221Z,100046.92
2019-03-22T09:10:02.135Z,100044.76
2019-03-22T09:12:29.079Z,100043.36
2019-03-22T09:14:55.932Z,100040.16
2019-03-22T09:17:23.361Z,100049.00
2019-03-22T09:19:51.252Z,100045.14
2019-03-22T09:22:18.675Z,100039.94
2019-03-22T09:24:47.678Z,100039.81
2019-03-22T09:27:17.757Z,100047.39
2019-03-22T09:29:47.434Z,100030.60
2019-03-22T09:32:14.478Z,100032.88
2019-03-22T09:34:42.531Z,100037.88
2019-03-22T09:37:09.994Z,100038.16
2019-03-22T09:39:39.643Z,100031.16
2019-03-22T09:42:07.510Z,100033.05
2019-03-22T09:44:43.412Z,100035.67
2019-03-22T09:47:04.355Z,100029.92
2019-03-22T09:49:31.229Z,100028.05
2019-03-22T09:51:58.549Z,100022.14
2019-03-22T09:54:25.830Z,100026.35
2019-03-22T09:56:52.657Z,100024.05
2019-03-22T09:59:19.937Z,100013.14
2019-03-22T10:01:47.024Z,100019.17
2019-03-22T10:04:18.777Z,100016.83
2019-03-22T10:06:45.924Z,100015.67
2019-03-22T10:09:12.808Z,100012.27
2019-03-22T10:11:39.756Z,100010.20
2019-03-22T10:14:06.696Z,100009.32
2019-03-22T10:16:34.262Z,100003.72
2019-03-22T10:19:04.088Z,100004.66
2019-03-22T10:21:33.894Z,100004.91
2019-03-22T10:24:01.561Z,100002.72
2019-03-22T10:26:29.406Z,100003.82
2019-03-22T10:29:06.797Z,99995.41
2019-03-22T10:31:37.567Z,99998.27
2019-03-22T10:34:25.777Z,100000.31
2019-03-22T10:36:53.168Z,99995.18
2019-03-22T10:39:20.804Z,99999.56
2019-03-22T10:41:48.330Z,99999.08
2019-03-22T10:44:15.608Z,99993.98
2019-03-22T10:46:43.458Z,99998.19
2019-03-22T10:49:12.685Z,99993.75
2019-03-22T10:51:39.866Z,99991.97
2019-03-22T10:54:07.174Z,99990.32
2019-03-22T10:56:34.962Z,99987.09
2019-03-22T10:59:01.904Z,99983.38
2019-03-22T11:01:52.396Z,99978.06
2019-03-22T11:04:17.039Z,99979.24
2019-03-22T11:06:44.125Z,99982.88
2019-03-22T11:09:11.390Z,99982.26
2019-03-22T11:11:38.947Z,99992.71
2019-03-22T11:14:06.796Z,99987.82
2019-03-22T11:16:34.408Z,99990.57
2019-03-22T11:19:02.151Z,99987.34
2019-03-22T11:21:29.368Z,99993.00
2019-03-22T11:24:00.637Z,99987.59
2019-03-22T11:26:27.627Z,99990.19
2019-03-22T11:28:54.911Z,99992.84
2019-03-22T11:31:28.693Z,99985.89
2019-03-22T11:33:53.213Z,99987.39
2019-03-22T11:36:20.700Z,99980.73
2019-03-22T11:38:47.907Z,99977.91
2019-03-22T11:41:15.259Z,99985.05
2019-03-22T11:43:42.342Z,99987.05
2019-03-22T11:46:09.686Z,99978.44
2019-03-22T11:48:36.876Z,99977.06
2019-03-22T11:51:09.383Z,99969.57
2019-03-22T11:53:38.778Z,99979.47
2019-03-22T11:56:05.957Z,99980.08
2019-03-22T11:58:33.320Z,99976.55
2019-03-22T12:01:00.629Z,99973.22
2019-03-22T12:03:27.454Z,99970.13
2019-03-22T12:05:55.136Z,99968.05
2019-03-22T12:08:22.634Z,99960.56
2019-03-22T12:10:50.158Z,99963.92
2019-03-22T12:13:16.966Z,99962.67
2019-03-22T12:15:43.815Z,99955.15
2019-03-22T12:18:10.750Z,99964.35
2019-03-22T12:20:38.125Z,99961.49
2019-03-22T12:23:05.297Z,99965.09
2019-03-22T12:25:32.417Z,99962.48
2019-03-22T12:27:59.828Z,99961.41
2019-03-22T12:30:26.709Z,99956.50
2019-03-22T12:32:53.815Z,99953.63
2019-03-22T12:35:21.351Z,99955.34
2019-03-22T12:37:48.632Z,99952.36
2019-03-22T12:40:24.679Z,99954.46
2019-03-22T12:42:53.185Z,99941.45
2019-03-22T12:45:36.178Z,99949.14
2019-03-22T12:48:03.968Z,99945.66
2019-03-22T12:50:40.643Z,99948.91
2019-03-22T12:53:10.136Z,99936.70
2019-03-22T12:55:37.855Z,99936.27
2019-03-22T12:58:04.955Z,99938.47
2019-03-22T13:00:32.534Z,99932.68
2019-03-22T13:02:59.580Z,99935.41
2019-03-22T13:05:26.887Z,99938.41
2019-03-22T13:07:54.285Z,99930.55
2019-03-22T13:10:26.230Z,99927.73
2019-03-22T13:13:18.412Z,99934.50
2019-03-22T13:15:47.551Z,99930.21
2019-03-22T13:18:15.026Z,99916.92
2019-03-22T13:20:45.029Z,99915.05
2019-03-22T13:23:12.535Z,99912.67
2019-03-22T13:25:40.105Z,99907.82
2019-03-22T13:28:07.235Z,99909.77
2019-03-22T13:30:37.415Z,99905.27
2019-03-22T13:33:04.871Z,99894.89
2019-03-22T13:35:40.154Z,99899.25
2019-03-22T13:38:07.129Z,99905.15
2019-03-22T13:40:34.308Z,99898.84
2019-03-22T13:43:01.771Z,99893.31
2019-03-22T13:45:28.890Z,99881.28
2019-03-22T13:47:58.242Z,99877.48
2019-03-22T13:50:25.393Z,99881.77
2019-03-22T13:52:52.490Z,99883.88
2019-03-22T13:55:19.869Z,99876.19
2019-03-22T13:57:46.712Z,99875.16
2019-03-22T14:00:17.727Z,99875.66
2019-03-22T14:02:44.912Z,99874.91
2019-03-22T14:05:12.382Z,99866.54
2019-03-22T14:07:39.414Z,99864.19
2019-03-22T14:10:10.260Z,99864.67
2019-03-22T14:12:37.486Z,99862.95
2019-03-22T14:15:06.744Z,99862.23
2019-03-22T14:17:33.933Z,99859.57
2019-03-22T14:20:10.465Z,99850.14
2019-03-22T14:22:30.125Z,99859.40
2019-03-22T14:24:57.453Z,99852.23
2019-03-22T14:27:26.735Z,99851.81
2019-03-22T14:29:54.068Z,99847.34
2019-03-22T14:32:21.525Z,99855.31
2019-03-22T14:34:50.035Z,99850.59
2019-03-22T14:37:22.184Z,99840.84
2019-03-22T14:39:49.714Z,99838.02
2019-03-22T14:42:20.473Z,99832.50
2019-03-22T14:44:48.388Z,99828.81
2019-03-22T14:47:16.557Z,99833.41
2019-03-22T14:49:45.554Z,99824.23
2019-03-22T14:52:12.491Z,99823.32
2019-03-22T14:54:39.276Z,99829.88
2019-03-22T14:57:06.167Z,99817.87
2019-03-22T14:59:33.151Z,99819.75
2019-03-22T15:02:00.600Z,99814.39
2019-03-22T15:04:27.393Z,99810.86
2019-03-22T15:06:54.534Z,99814.32
2019-03-22T15:09:23.487Z,99801.70
2019-03-22T15:11:56.122Z,99798.62
2019-03-22T15:14:24.959Z,99791.66
2019-03-22T15:17:12.607Z,99793.30
2019-03-22T15:19:47.603Z,99793.58
2019-03-22T15:22:25.768Z,99798.85
2019-03-22T15:24:52.633Z,99795.55
2019-03-22T15:27:21.859Z,99793.81
2019-03-22T15:29:53.899Z,99790.45
2019-03-22T15:32:29.885Z,99787.66
2019-03-22T15:35:18.169Z,99780.86
2019-03-22T15:37:57.459Z,99780.83
2019-03-22T15:40:24.480Z,99782.95
2019-03-22T15:42:52.858Z,99773.28
2019-03-22T15:45:19.824Z,99766.88
2019-03-22T15:47:48.860Z,99769.76
2019-03-22T15:50:18.189Z,99772.55
2019-03-22T15:52:45.970Z,99767.66
2019-03-22T15:55:13.414Z,99767.85
2019-03-22T15:57:44.313Z,99767.91
2019-03-22T16:00:15.925Z,99766.03
2019-03-22T16:02:44.173Z,99762.11
2019-03-22T16:05:18.739Z,99762.05
2019-03-22T16:07:45.934Z,99763.66
2019-03-22T16:10:12.900Z,99760.13
2019-03-22T16:12:41.021Z,99763.29
2019-03-22T16:15:13.258Z,99765.88
2019-03-22T16:17:40.309Z,99759.59
2019-03-22T16:20:11.482Z,99759.96
2019-03-22T16:22:38.928Z,99758.35
2019-03-22T16:25:09.048Z,99764.73
2019-03-22T16:27:36.549Z,99764.91
2019-03-22T16:30:08.481Z,99763.00
2019-03-22T16:32:35.548Z,99766.57
2019-03-22T16:35:06.926Z,99766.98
2019-03-22T16:37:35.699Z,99773.98
2019-03-22T16:40:04.807Z,99766.98
2019-03-22T16:42:33.925Z,99762.77
2019-03-22T16:45:03.200Z,99761.66
2019-03-22T16:47:30.135Z,99759.49
2019-03-22T16:49:56.992Z,99762.47
2019-03-22T16:52:23.834Z,99767.43
2019-03-22T16:54:52.551Z,99766.88
2019-03-22T16:57:19.688Z,99767.13
2019-03-22T16:59:46.886Z,99759.19
2019-03-22T17:02:14.229Z,99761.88
2019-03-22T17:04:41.779Z,99763.55
2019-03-22T17:07:09.488Z,99767.74
2019-03-22T17:09:36.816Z,99763.86
2019-03-22T17:12:03.969Z,99765.97
2019-03-22T17:14:32.597Z,99765.99
2019-03-22T17:16:59.839Z,99767.64
2019-03-22T17:19:27.061Z,99771.80
2019-03-22T17:21:54.332Z,99769.59
2019-03-22T17:24:21.591Z,99768.05
2019-03-22T17:26:48.471Z,99770.66
2019-03-22T17:29:15.975Z,99768.97
2019-03-22T17:31:43.188Z,99768.97
2019-03-22T17:34:14.140Z,99777.30
2019-03-22T17:36:39.624Z,99787.86
2019-03-22T17:39:06.641Z,99789.03
2019-03-22T17:41:33.986Z,99789.32
2019-03-22T17:44:01.348Z,99795.52
2019-03-22T17:46:28.451Z,99788.62
2019-03-22T17:48:56.264Z,99784.78
2019-03-22T17:51:23.442Z,99789.84
2019-03-22T17:53:50.551Z,99794.37
2019-03-22T17:56:17.726Z,99793.61
2019-03-22T17:58:44.759Z,99789.97
2019-03-22T18:01:12.669Z,99793.12
2019-03-22T18:03:42.586Z,99795.69
2019-03-22T18:06:09.797Z,99796.94
2019-03-22T18:08:37.360Z,99800.01
2019-03-22T18:11:04.716Z,99801.42
2019-03-22T18:13:31.925Z,99803.13
2019-03-22T18:15:58.842Z,99806.03
2019-03-22T18:18:26.378Z,99807.05
2019-03-22T18:20:53.590Z,99807.14
2019-03-22T18:23:22.174Z,99801.70
2019-03-22T18:25:49.436Z,99802.00
2019-03-22T18:28:19.781Z,99810.11
2019-03-22T18:30:46.613Z,99805.91
2019-03-22T18:33:13.983Z,99816.78
2019-03-22T18:35:41.612Z,99811.41
2019-03-22T18:38:09.030Z,99810.67
2019-03-22T18:40:38.185Z,99809.55
2019-03-22T18:43:06.777Z,99813.67
2019-03-22T18:45:33.700Z,99816.74
2019-03-22T18:48:00.818Z,99819.59
2019-03-22T18:50:27.839Z,99817.95
2019-03-22T18:52:55.102Z,99815.19
2019-03-22T18:55:22.583Z,99817.88
2019-03-22T18:57:49.482Z,99821.23
2019-03-22T19:00:17.487Z,99822.02
2019-03-22T19:02:44.387Z,99826.73
2019-03-22T19:05:12.438Z,99829.55
2019-03-22T19:07:39.305Z,99826.83
2019-03-22T19:10:11.766Z,99825.73
2019-03-22T19:12:38.870Z,99828.23
2019-03-22T19:15:09.731Z,99832.00
2019-03-22T19:17:37.249Z,99828.70
2019-03-22T19:20:07.920Z,99827.57
2019-03-22T19:22:34.769Z,99833.05
2019-03-22T19:25:02.536Z,99833.19
2019-03-22T19:27:29.718Z,99831.42
2019-03-22T19:29:57.142Z,99832.02
2019-03-22T19:32:24.215Z,99826.89
2019-03-22T19:34:54.651Z,99826.63
2019-03-22T19:37:19.799Z,99834.20
2019-03-22T19:39:46.743Z,99830.41
2019-03-22T19:42:13.639Z,99828.56
2019-03-22T19:44:41.015Z,99837.57
2019-03-22T19:47:08.806Z,99828.07
2019-03-22T19:49:36.022Z,99828.88
2019-03-22T19:52:03.650Z,99837.83
2019-03-22T19:54:30.565Z,99833.70
2019-03-22T19:56:57.736Z,99834.80
2019-03-22T19:59:24.523Z,99831.03
2019-03-22T20:01:51.766Z,99836.52
2019-03-22T20:04:18.543Z,99837.34
2019-03-22T20:06:45.310Z,99837.08
2019-03-22T20:09:12.480Z,99840.61
2019-03-22T20:11:39.397Z,99838.98
2019-03-22T20:14:06.478Z,99837.94
2019-03-22T20:16:33.431Z,99839.61
2019-03-22T20:19:00.567Z,99836.88
2019-03-22T20:21:27.482Z,99846.39
2019-03-22T20:23:54.414Z,99840.41
2019-03-22T20:26:22.175Z,99842.84
2019-03-22T20:28:48.924Z,99838.22
2019-03-22T20:31:15.897Z,99843.13
2019-03-22T20:33:43.133Z,99844.19
2019-03-22T20:36:10.917Z,99844.19
2019-03-22T20:38:37.858Z,99836.87
2019-03-22T20:41:04.992Z,99840.66
2019-03-22T20:43:33.754Z,99841.75
2019-03-22T20:46:02.205Z,99846.91
2019-03-22T20:48:29.093Z,99843.91
2019-03-22T20:50:56.543Z,99841.75
2019-03-22T20:53:26.128Z,99839.04
2019-03-22T20:55:53.214Z,99844.47
2019-03-22T20:58:20.572Z,99839.57
2019-03-22T21:00:47.548Z,99842.82
2019-03-22T21:03:14.488Z,99842.80
2019-03-22T21:05:41.685Z,99841.70
2019-03-22T21:08:08.472Z,99841.70
2019-03-22T21:10:35.309Z,99839.78
2019-03-22T21:13:02.375Z,99843.03
2019-03-22T21:15:30.280Z,99843.30
2019-03-22T21:18:00.511Z,99843.58
2019-03-22T21:20:32.159Z,99842.73
2019-03-22T21:23:03.327Z,99850.31
2019-03-22T21:25:32.338Z,99847.61
2019-03-22T21:28:03.909Z,99845.44
2019-03-22T21:30:31.614Z,99848.66
2019-03-22T21:33:00.569Z,99847.03
2019-03-22T21:35:36.880Z,99843.23
2019-03-22T21:38:09.987Z,99845.66
2019-03-22T21:40:29.515Z,99842.36
2019-03-22T21:42:57.315Z,99841.53
2019-03-22T21:45:25.990Z,99835.81
2019-03-22T21:47:53.181Z,99836.37
2019-03-22T21:50:20.270Z,99837.95
2019-03-22T21:52:47.425Z,99833.06
2019-03-22T21:55:14.210Z,99833.84
2019-03-22T21:57:41.083Z,99833.58
2019-03-22T22:00:13.467Z,99834.92
2019-03-22T22:02:40.664Z,99832.72
2019-03-22T22:05:07.803Z,99833.00
2019-03-22T22:07:34.593Z,99831.25
2019-03-22T22:10:05.099Z,99834.84
2019-03-22T22:12:32.275Z,99834.32
2019-03-22T22:15:36.207Z,99839.42
2019-03-22T22:18:09.608Z,99837.77
2019-03-22T22:20:37.779Z,99828.86
2019-03-22T22:23:04.679Z,99834.41
2019-03-22T22:25:31.845Z,99827.09
2019-03-22T22:27:58.867Z,99829.52
2019-03-22T22:30:25.663Z,99827.10
2019-03-22T22:32:52.602Z,99832.54
2019-03-22T22:35:19.824Z,99825.96
2019-03-22T22:37:46.844Z,99825.13
2019-03-22T22:40:16.649Z,99821.00
2019-03-22T22:42:44.215Z,99820.09
2019-03-22T22:45:12.419Z,99827.32
2019-03-22T22:47:41.878Z,99820.05
2019-03-22T22:50:10.891Z,99821.92
2019-03-22T22:52:38.170Z,99824.25
2019-03-22T22:55:08.171Z,99820.27
2019-03-22T22:57:37.438Z,99823.02
2019-03-22T23:00:13.250Z,99825.91
2019-03-22T23:02:40.254Z,99827.20
2019-03-22T23:05:07.430Z,99822.45
2019-03-22T23:07:35.714Z,99822.63
2019-03-22T23:10:04.838Z,99820.96
2019-03-22T23:12:32.242Z,99822.12
2019-03-22T23:14:59.160Z,99820.63
2019-03-22T23:17:27.407Z,99820.86
2019-03-22T23:19:54.344Z,99823.81
2019-03-22T23:22:22.351Z,99820.40
2019-03-22T23:24:49.333Z,99827.91
2019-03-22T23:27:16.377Z,99824.37
2019-03-22T23:29:45.855Z,99825.43
2019-03-22T23:32:12.861Z,99820.55
2019-03-22T23:34:39.908Z,99826.92
2019-03-22T23:37:07.330Z,99827.10
2019-03-22T23:39:34.591Z,99821.74
2019-03-22T23:42:01.364Z,99829.52
2019-03-22T23:44:28.232Z,99836.22
2019-03-22T23:46:55.429Z,99837.23
2019-03-22T23:49:22.361Z,99832.16
2019-03-22T23:51:49.219Z,99827.05
2019-03-22T23:54:16.355Z,99831.82
2019-03-22T23:56:43.674Z,99824.47
2019-03-22T23:59:10.947Z,99831.82
